createdAt,value
2022-12-05T00:02:01.876Z,4.47
2022-12-05T00:04:29.919Z,5.13
2022-12-05T00:06:57.875Z,4.40
2022-12-05T00:09:25.966Z,4.60
2022-12-05T00:11:55.115Z,4.63
2022-12-05T00:14:22.927Z,4.23
2022-12-05T00:16:50.727Z,5.03
2022-12-05T00:19:18.598Z,5.40
2022-12-05T00:21:47.081Z,4.70
2022-12-05T00:24:17.089Z,4.27
2022-12-05T00:26:45.316Z,5.07
2022-12-05T00:29:14.528Z,4.53
2022-12-05T00:31:42.712Z,4.57
2022-12-05T00:34:11.276Z,4.97
2022-12-05T00:36:39.271Z,4.37
2022-12-05T00:39:09.087Z,4.37
2022-12-05T00:41:37.303Z,4.10
2022-12-05T00:44:06.529Z,4.60
2022-12-05T00:46:36.409Z,5.23
2022-12-05T00:49:06.092Z,4.07
2022-12-05T00:51:35.910Z,4.20
2022-12-05T00:54:07.333Z,4.90
2022-12-05T00:56:35.500Z,4.47
2022-12-05T00:59:04.280Z,4.63
2022-12-05T01:01:33.895Z,4.30
2022-12-05T01:04:06.268Z,3.83
2022-12-05T01:06:34.570Z,4.20
2022-12-05T01:09:02.386Z,4.90
2022-12-05T01:11:30.714Z,4.73
2022-12-05T01:13:59.322Z,4.57
2022-12-05T01:16:30.000Z,4.20
2022-12-05T01:18:59.194Z,4.57
2022-12-05T01:21:29.019Z,4.17
2022-12-05T01:23:57.435Z,4.17
2022-12-05T01:26:25.734Z,4.10
2022-12-05T01:28:54.002Z,4.40
2022-12-05T01:31:25.293Z,4.00
2022-12-05T01:33:55.462Z,4.70
2022-12-05T01:36:23.821Z,4.10
2022-12-05T01:38:53.576Z,4.80
2022-12-05T01:41:24.354Z,4.20
2022-12-05T01:44:01.561Z,5.00
2022-12-05T01:46:31.342Z,4.63
2022-12-05T01:49:04.132Z,4.10
2022-12-05T01:51:33.723Z,4.57
2022-12-05T01:54:03.509Z,4.20
2022-12-05T01:56:33.523Z,4.90
2022-12-05T01:59:02.538Z,4.63
2022-12-05T02:01:30.467Z,4.20
2022-12-05T02:03:59.392Z,4.47
2022-12-05T02:06:28.733Z,4.23
2022-12-05T02:08:56.594Z,4.67
2022-12-05T02:11:29.458Z,4.77
2022-12-05T02:14:10.596Z,4.53
2022-12-05T02:16:48.817Z,4.20
2022-12-05T02:19:49.331Z,4.50
2022-12-05T02:22:54.387Z,4.43
2022-12-05T02:25:44.967Z,4.80
2022-12-05T02:28:40.926Z,4.47
2022-12-05T02:31:14.836Z,4.60
2022-12-05T02:33:47.918Z,4.87
2022-12-05T02:36:23.044Z,4.20
2022-12-05T02:38:59.638Z,4.53
2022-12-05T02:41:33.813Z,4.70
2022-12-05T02:44:06.579Z,4.60
2022-12-05T02:46:39.076Z,4.30
2022-12-05T02:49:10.448Z,4.30
2022-12-05T02:51:43.240Z,4.40
2022-12-05T02:54:15.043Z,4.30
2022-12-05T02:56:45.397Z,4.90
2022-12-05T02:59:16.068Z,4.50
2022-12-05T03:01:49.639Z,4.50
2022-12-05T03:04:19.950Z,4.23
2022-12-05T03:06:51.970Z,4.60
2022-12-05T03:09:24.587Z,4.67
2022-12-05T03:11:56.944Z,5.00
2022-12-05T03:14:29.730Z,4.57
2022-12-05T03:17:02.491Z,4.70
2022-12-05T03:19:38.020Z,4.67
2022-12-05T03:22:10.778Z,4.57
2022-12-05T03:24:41.702Z,4.50
2022-12-05T03:27:17.934Z,4.50
2022-12-05T03:29:52.711Z,4.70
2022-12-05T03:32:25.574Z,5.00
2022-12-05T03:35:04.520Z,4.20
2022-12-05T03:37:42.809Z,4.70
2022-12-05T03:40:19.634Z,4.97
2022-12-05T03:42:54.963Z,4.50
2022-12-05T03:45:30.560Z,4.73
2022-12-05T03:48:08.576Z,4.50
2022-12-05T03:50:40.913Z,4.77
2022-12-05T03:53:21.309Z,4.90
2022-12-05T03:56:00.426Z,4.63
2022-12-05T03:58:34.021Z,4.57
2022-12-05T04:01:06.466Z,4.53
2022-12-05T04:03:41.565Z,4.83
2022-12-05T04:06:16.326Z,4.20
2022-12-05T04:08:49.036Z,4.60
2022-12-05T04:11:21.450Z,4.37
2022-12-05T04:13:53.096Z,4.30
2022-12-05T04:16:42.152Z,4.50
2022-12-05T04:19:18.503Z,4.33
2022-12-05T04:21:50.331Z,4.77
2022-12-05T04:24:39.543Z,5.07
2022-12-05T04:27:21.396Z,4.63
2022-12-05T04:29:57.664Z,5.00
2022-12-05T04:32:30.772Z,4.83
2022-12-05T04:35:07.615Z,4.70
2022-12-05T04:37:40.810Z,5.00
2022-12-05T04:40:13.410Z,4.77
2022-12-05T04:42:43.781Z,4.27
2022-12-05T04:45:14.266Z,4.63
2022-12-05T04:47:45.844Z,4.77
2022-12-05T04:50:16.854Z,4.70
2022-12-05T04:52:47.146Z,4.63
2022-12-05T04:55:20.051Z,4.50
2022-12-05T04:57:53.797Z,4.43
2022-12-05T05:00:21.885Z,4.93
2022-12-05T05:02:55.563Z,4.90
2022-12-05T05:05:24.855Z,5.00
2022-12-05T05:07:55.211Z,4.47
2022-12-05T05:10:28.167Z,4.57
2022-12-05T05:12:56.183Z,4.50
2022-12-05T05:15:24.354Z,4.40
2022-12-05T05:17:52.202Z,4.60
2022-12-05T05:20:27.031Z,4.63
2022-12-05T05:22:57.314Z,4.37
2022-12-05T05:25:26.285Z,4.20
2022-12-05T05:27:55.754Z,5.07
2022-12-05T05:30:25.233Z,4.33
2022-12-05T05:32:53.680Z,4.47
2022-12-05T05:35:21.696Z,4.00
2022-12-05T05:37:49.500Z,4.13
2022-12-05T05:40:18.938Z,4.50
2022-12-05T05:42:48.366Z,4.53
2022-12-05T05:45:16.988Z,4.50
2022-12-05T05:47:45.218Z,4.00
2022-12-05T05:50:19.524Z,4.10
2022-12-05T05:52:49.138Z,4.03
2022-12-05T05:55:18.729Z,4.40
2022-12-05T05:57:46.561Z,4.17
2022-12-05T06:00:15.770Z,4.43
2022-12-05T06:02:43.689Z,4.13
2022-12-05T06:05:11.725Z,4.37
2022-12-05T06:07:39.593Z,4.23
2022-12-05T06:10:08.755Z,4.17
2022-12-05T06:12:37.920Z,4.00
2022-12-05T06:15:06.899Z,4.40
2022-12-05T06:17:34.682Z,4.40
2022-12-05T06:20:02.689Z,4.33
2022-12-05T06:22:30.832Z,4.50
2022-12-05T06:24:59.028Z,3.87
2022-12-05T06:27:27.004Z,4.43
2022-12-05T06:29:56.469Z,3.87
2022-12-05T06:32:24.517Z,4.53
2022-12-05T06:34:52.370Z,4.33
2022-12-05T06:37:20.171Z,4.10
2022-12-05T06:39:47.997Z,3.90
2022-12-05T06:42:16.116Z,3.90
2022-12-05T06:44:43.916Z,4.00
2022-12-05T06:47:13.081Z,4.03
2022-12-05T06:49:41.058Z,3.73
2022-12-05T06:52:08.883Z,4.03
2022-12-05T06:54:37.134Z,3.90
2022-12-05T06:57:05.049Z,4.10
2022-12-05T06:59:32.842Z,4.13
2022-12-05T07:02:00.541Z,3.93
2022-12-05T07:04:29.826Z,3.90
2022-12-05T07:06:58.444Z,3.77
2022-12-05T07:09:45.739Z,4.30
2022-12-05T07:12:14.830Z,3.53
2022-12-05T07:14:48.054Z,3.83
2022-12-05T07:17:16.375Z,4.20
2022-12-05T07:19:45.626Z,4.13
2022-12-05T07:22:15.923Z,4.30
2022-12-05T07:24:44.624Z,4.10
2022-12-05T07:27:12.721Z,4.50
2022-12-05T07:29:40.536Z,4.80
2022-12-05T07:32:08.732Z,5.00
2022-12-05T07:34:38.587Z,4.23
2022-12-05T07:37:08.057Z,4.43
2022-12-05T07:39:35.898Z,4.00
2022-12-05T07:42:03.714Z,3.93
2022-12-05T07:44:32.245Z,4.27
2022-12-05T07:47:00.498Z,3.77
2022-12-05T07:49:28.518Z,4.20
2022-12-05T07:51:56.337Z,4.30
2022-12-05T07:54:25.520Z,3.90
2022-12-05T07:56:53.316Z,3.93
2022-12-05T07:59:21.340Z,4.07
2022-12-05T08:01:49.220Z,4.53
2022-12-05T08:04:17.063Z,4.68
2022-12-05T08:06:44.981Z,4.30
2022-12-05T08:09:12.841Z,4.13
2022-12-05T08:11:42.228Z,3.63
2022-12-05T08:14:10.124Z,4.23
2022-12-05T08:16:38.109Z,3.80
2022-12-05T08:19:07.577Z,4.33
2022-12-05T08:21:36.279Z,4.10
2022-12-05T08:24:06.372Z,4.83
2022-12-05T08:26:35.275Z,4.10
2022-12-05T08:29:06.993Z,4.07
2022-12-05T08:31:37.064Z,4.30
2022-12-05T08:34:04.870Z,3.80
2022-12-05T08:36:32.920Z,4.10
2022-12-05T08:39:02.322Z,4.03
2022-12-05T08:41:30.990Z,4.53
2022-12-05T08:44:01.350Z,3.67
2022-12-05T08:46:30.672Z,3.57
2022-12-05T08:48:58.555Z,4.57
2022-12-05T08:51:26.573Z,4.30
2022-12-05T08:53:56.195Z,4.57
2022-12-05T08:56:27.123Z,4.40
2022-12-05T08:59:01.217Z,4.13
2022-12-05T09:01:38.241Z,4.70
2022-12-05T09:04:06.978Z,4.17
2022-12-05T09:06:35.947Z,4.30
2022-12-05T09:09:05.915Z,4.53
2022-12-05T09:11:35.624Z,4.60
2022-12-05T09:14:05.078Z,4.80
2022-12-05T09:16:38.540Z,5.03
2022-12-05T09:19:07.933Z,4.17
2022-12-05T09:21:35.739Z,4.33
2022-12-05T09:24:03.584Z,4.43
2022-12-05T09:26:31.594Z,4.13
2022-12-05T09:28:59.553Z,4.33
2022-12-05T09:31:28.239Z,4.57
2022-12-05T09:33:57.568Z,4.60
2022-12-05T09:36:27.818Z,4.53
2022-12-05T09:38:57.125Z,4.50
2022-12-05T09:41:56.906Z,4.57
2022-12-05T09:44:33.633Z,4.90
2022-12-05T09:47:05.130Z,8.93
2022-12-05T09:49:39.164Z,7.50
2022-12-05T09:52:07.129Z,8.70
2022-12-05T09:54:35.078Z,9.83
2022-12-05T09:57:05.832Z,9.00
2022-12-05T09:59:33.737Z,8.40
2022-12-05T10:02:12.867Z,9.93
2022-12-05T10:05:00.592Z,9.93
2022-12-05T10:07:33.826Z,11.90
2022-12-05T10:10:20.969Z,11.40
2022-12-05T10:13:00.272Z,11.77
2022-12-05T10:15:33.796Z,11.97
2022-12-05T10:18:05.878Z,11.00
2022-12-05T10:20:48.475Z,11.10
2022-12-05T10:23:48.937Z,11.57
2022-12-05T10:26:15.468Z,13.70
2022-12-05T10:28:52.179Z,13.73
2022-12-05T10:31:25.186Z,13.03
2022-12-05T10:33:59.709Z,15.33
2022-12-05T10:36:28.858Z,14.43
2022-12-05T10:38:57.774Z,13.27
2022-12-05T10:41:25.899Z,14.17
2022-12-05T10:43:54.150Z,15.83
2022-12-05T10:46:21.992Z,17.57
2022-12-05T10:48:49.896Z,19.57
2022-12-05T10:51:21.586Z,20.23
2022-12-05T10:53:52.646Z,16.83
2022-12-05T10:56:43.923Z,15.57
2022-12-05T10:59:13.769Z,10.00
2022-12-05T11:01:47.897Z,9.80
2022-12-05T11:04:28.264Z,11.70
2022-12-05T11:06:59.408Z,11.77
2022-12-05T11:09:31.015Z,10.63
2022-12-05T11:12:04.121Z,10.37
2022-12-05T11:14:33.392Z,9.70
2022-12-05T11:17:03.469Z,10.03
2022-12-05T11:19:33.178Z,8.63
2022-12-05T11:22:01.486Z,8.57
2022-12-05T11:24:32.961Z,8.27
2022-12-05T11:27:20.628Z,8.30
2022-12-05T11:29:57.573Z,7.50
2022-12-05T11:32:27.028Z,7.77
2022-12-05T11:35:02.050Z,8.00
2022-12-05T11:37:36.219Z,8.60
2022-12-05T11:40:15.470Z,9.40
2022-12-05T11:42:57.038Z,12.60
2022-12-05T11:45:40.707Z,9.73
2022-12-05T11:48:35.626Z,10.43
2022-12-05T11:51:27.138Z,10.63
2022-12-05T11:54:42.052Z,11.20
2022-12-05T11:57:24.083Z,10.70
2022-12-05T12:00:19.244Z,9.07
2022-12-05T12:03:29.803Z,9.37
2022-12-05T12:06:13.381Z,8.53
2022-12-05T12:08:56.836Z,7.97
2022-12-05T12:11:30.476Z,8.20
2022-12-05T12:14:07.055Z,7.83
2022-12-05T12:16:43.879Z,7.90
2022-12-05T12:19:29.484Z,7.77
2022-12-05T12:22:15.397Z,7.97
2022-12-05T12:24:57.712Z,8.20
2022-12-05T12:27:37.946Z,7.10
2022-12-05T12:30:13.514Z,7.40
2022-12-05T12:32:50.707Z,7.93
2022-12-05T12:35:39.149Z,7.10
2022-12-05T12:38:25.006Z,7.20
2022-12-05T12:40:55.599Z,7.47
2022-12-05T12:43:53.803Z,7.40
2022-12-05T12:46:37.911Z,6.60
2022-12-05T12:49:30.949Z,6.80
2022-12-05T12:52:04.251Z,6.63
2022-12-05T12:55:03.494Z,6.57
2022-12-05T12:57:43.187Z,7.07
2022-12-05T13:00:21.420Z,6.63
2022-12-05T13:02:56.254Z,6.53
2022-12-05T13:05:32.077Z,6.57
2022-12-05T13:08:04.863Z,6.00
2022-12-05T13:10:37.647Z,6.23
2022-12-05T13:13:07.088Z,6.23
2022-12-05T13:15:40.853Z,6.23
2022-12-05T13:18:17.888Z,6.03
2022-12-05T13:20:48.881Z,6.50
2022-12-05T13:23:19.328Z,6.37
2022-12-05T13:25:48.247Z,5.47
2022-12-05T13:28:27.937Z,6.13
2022-12-05T13:31:02.428Z,5.07
2022-12-05T13:33:35.279Z,5.87
2022-12-05T13:36:27.282Z,5.90
2022-12-05T13:39:21.317Z,5.40
2022-12-05T13:42:09.697Z,6.20
2022-12-05T13:44:41.531Z,5.33
2022-12-05T13:47:32.127Z,6.00
2022-12-05T13:50:10.514Z,5.97
2022-12-05T13:52:46.537Z,5.70
2022-12-05T13:55:27.638Z,5.87
2022-12-05T13:57:59.517Z,4.97
2022-12-05T14:00:36.980Z,5.00
2022-12-05T14:03:19.541Z,5.83
2022-12-05T14:05:54.171Z,6.23
2022-12-05T14:08:54.060Z,5.60
2022-12-05T14:11:22.623Z,5.67
2022-12-05T14:13:50.790Z,5.23
2022-12-05T14:16:50.402Z,6.13
2022-12-05T14:19:53.891Z,5.07
2022-12-05T14:22:49.864Z,5.73
2022-12-05T14:25:30.753Z,6.20
2022-12-05T14:28:04.057Z,5.33
2022-12-05T14:30:45.510Z,5.00
2022-12-05T14:33:17.151Z,5.40
2022-12-05T14:35:50.662Z,5.23
2022-12-05T14:38:29.225Z,4.80
2022-12-05T14:41:06.397Z,5.77
2022-12-05T14:43:35.890Z,5.17
2022-12-05T14:46:06.295Z,5.63
2022-12-05T14:48:39.263Z,5.20
2022-12-05T14:51:42.686Z,5.20
2022-12-05T14:54:16.037Z,5.30
2022-12-05T14:56:45.534Z,5.40
2022-12-05T14:59:24.361Z,4.70
2022-12-05T15:01:55.617Z,5.37
2022-12-05T15:04:29.633Z,5.43
2022-12-05T15:07:01.233Z,5.23
2022-12-05T15:09:38.194Z,5.00
2022-12-05T15:12:12.076Z,5.00
2022-12-05T15:14:48.125Z,5.57
2022-12-05T15:17:23.339Z,5.47
2022-12-05T15:19:58.196Z,4.60
2022-12-05T15:22:28.974Z,5.40
2022-12-05T15:24:58.573Z,5.27
2022-12-05T15:27:26.549Z,5.17
2022-12-05T15:29:56.479Z,4.93
2022-12-05T15:32:28.119Z,4.57
2022-12-05T15:35:04.837Z,4.60
2022-12-05T15:37:36.646Z,5.27
2022-12-05T15:40:14.163Z,4.57
2022-12-05T15:42:44.509Z,4.77
2022-12-05T15:45:24.753Z,5.00
2022-12-05T15:47:54.991Z,4.47
2022-12-05T15:50:32.484Z,4.77
2022-12-05T15:53:05.613Z,4.73
2022-12-05T15:55:39.492Z,4.80
2022-12-05T15:58:13.629Z,4.03
2022-12-05T16:00:46.287Z,4.40
2022-12-05T16:03:20.235Z,4.20
2022-12-05T16:05:53.077Z,4.20
2022-12-05T16:08:21.187Z,4.70
2022-12-05T16:10:50.557Z,4.60
2022-12-05T16:13:23.555Z,4.20
2022-12-05T16:15:55.127Z,4.37
2022-12-05T16:18:27.962Z,4.40
2022-12-05T16:20:55.986Z,4.40
2022-12-05T16:23:27.360Z,4.20
2022-12-05T16:26:12.416Z,3.80
2022-12-05T16:28:40.260Z,3.97
2022-12-05T16:31:08.342Z,4.80
2022-12-05T16:33:41.838Z,4.37
2022-12-05T16:36:12.933Z,4.03
2022-12-05T16:38:43.432Z,4.20
2022-12-05T16:41:14.566Z,4.57
2022-12-05T16:43:45.432Z,4.23
2022-12-05T16:46:42.768Z,4.27
2022-12-05T16:49:35.109Z,4.10
2022-12-05T16:52:14.053Z,4.07
2022-12-05T16:54:42.517Z,3.93
2022-12-05T16:57:14.337Z,4.10
2022-12-05T16:59:43.557Z,3.70
2022-12-05T17:02:14.748Z,4.87
2022-12-05T17:04:43.240Z,3.87
2022-12-05T17:07:11.120Z,4.70
2022-12-05T17:09:38.956Z,4.43
2022-12-05T17:12:12.812Z,4.40
2022-12-05T17:14:41.994Z,4.23
2022-12-05T17:17:13.806Z,4.43
2022-12-05T17:19:41.609Z,3.90
2022-12-05T17:22:09.444Z,3.87
2022-12-05T17:24:37.420Z,4.70
2022-12-05T17:27:07.406Z,4.03
2022-12-05T17:29:35.970Z,4.40
2022-12-05T17:32:05.749Z,4.07
2022-12-05T17:34:33.558Z,3.77
2022-12-05T17:37:01.374Z,4.10
2022-12-05T17:39:29.254Z,3.77
2022-12-05T17:41:57.300Z,3.67
2022-12-05T17:44:25.362Z,3.50
2022-12-05T17:46:53.235Z,3.70
2022-12-05T17:49:22.806Z,3.50
2022-12-05T17:52:20.656Z,3.50
2022-12-05T17:54:41.498Z,3.37
2022-12-05T17:57:09.287Z,3.77
2022-12-05T17:59:38.152Z,3.83
2022-12-05T18:02:06.419Z,3.63
2022-12-05T18:04:36.652Z,3.43
2022-12-05T18:07:04.835Z,3.50
2022-12-05T18:09:32.925Z,3.53
2022-12-05T18:12:00.738Z,3.23
2022-12-05T18:14:28.615Z,7.10
2022-12-05T18:16:56.612Z,4.20
2022-12-05T18:19:24.570Z,5.30
2022-12-05T18:21:54.014Z,6.00
2022-12-05T18:24:21.841Z,7.20
2022-12-05T18:26:49.648Z,6.03
2022-12-05T18:29:17.500Z,5.27
2022-12-05T18:31:45.378Z,6.17
2022-12-05T18:34:13.188Z,6.70
2022-12-05T18:36:41.307Z,5.30
2022-12-05T18:39:14.820Z,6.00
2022-12-05T18:41:42.920Z,5.73
2022-12-05T18:44:10.906Z,5.93
2022-12-05T18:46:38.777Z,6.00
2022-12-05T18:49:06.860Z,5.23
2022-12-05T18:51:34.955Z,5.43
2022-12-05T18:54:02.739Z,5.77
2022-12-05T18:56:34.527Z,6.07
2022-12-05T18:59:04.598Z,5.50
2022-12-05T19:01:34.374Z,5.37
2022-12-05T19:04:03.952Z,6.40
2022-12-05T19:06:36.058Z,5.47
2022-12-05T19:09:06.783Z,4.97
2022-12-05T19:11:36.457Z,5.53
2022-12-05T19:14:05.813Z,5.10
2022-12-05T19:16:35.439Z,4.77
2022-12-05T19:19:05.482Z,5.30
2022-12-05T19:21:35.195Z,5.03
2022-12-05T19:24:04.936Z,5.10
2022-12-05T19:26:33.180Z,5.27
2022-12-05T19:29:02.459Z,5.03
2022-12-05T19:31:30.760Z,4.70
2022-12-05T19:34:01.744Z,4.80
2022-12-05T19:36:33.117Z,4.77
2022-12-05T19:39:01.084Z,4.93
2022-12-05T19:41:31.073Z,5.60
2022-12-05T19:44:00.725Z,13.67
2022-12-05T19:46:32.953Z,11.57
2022-12-05T19:49:02.771Z,19.87
2022-12-05T19:51:31.606Z,25.30
2022-12-05T19:54:00.886Z,24.77
2022-12-05T19:56:30.585Z,26.47
2022-12-05T19:58:59.644Z,28.03
2022-12-05T20:01:30.907Z,27.73
2022-12-05T20:04:00.473Z,32.30
2022-12-05T20:06:32.214Z,31.27
2022-12-05T20:09:00.785Z,31.53
2022-12-05T20:11:29.876Z,31.40
2022-12-05T20:13:59.296Z,33.80
2022-12-05T20:16:28.601Z,32.80
2022-12-05T20:18:59.120Z,34.10
2022-12-05T20:21:28.447Z,34.10
2022-12-05T20:23:56.838Z,32.53
2022-12-05T20:26:26.696Z,36.87
2022-12-05T20:28:57.348Z,34.37
2022-12-05T20:31:27.306Z,36.13
2022-12-05T20:33:57.169Z,34.03
2022-12-05T20:36:27.182Z,34.30
2022-12-05T20:38:59.490Z,33.17
2022-12-05T20:41:28.306Z,33.30
2022-12-05T20:43:57.985Z,34.27
2022-12-05T20:46:26.674Z,32.93
2022-12-05T20:48:56.248Z,33.07
2022-12-05T20:51:27.929Z,33.73
2022-12-05T20:53:56.642Z,32.00
2022-12-05T20:56:26.141Z,32.13
2022-12-05T20:58:56.667Z,32.10
2022-12-05T21:01:26.120Z,32.87
2022-12-05T21:03:54.649Z,32.67
2022-12-05T21:06:26.603Z,30.30
2022-12-05T21:08:55.385Z,31.63
2022-12-05T21:11:24.506Z,31.70
2022-12-05T21:13:52.844Z,30.83
2022-12-05T21:16:23.067Z,30.20
2022-12-05T21:18:51.605Z,30.00
2022-12-05T21:21:21.784Z,30.27
2022-12-05T21:23:54.900Z,28.20
2022-12-05T21:26:23.751Z,28.77
2022-12-05T21:28:52.110Z,28.13
2022-12-05T21:31:22.258Z,25.30
2022-12-05T21:33:52.253Z,25.20
2022-12-05T21:36:20.768Z,26.07
2022-12-05T21:38:55.600Z,24.33
2022-12-05T21:41:24.879Z,25.93
2022-12-05T21:43:55.303Z,25.03
2022-12-05T21:46:24.175Z,19.43
2022-12-05T21:48:52.430Z,22.57
2022-12-05T21:51:20.708Z,22.40
2022-12-05T21:53:49.921Z,22.20
2022-12-05T21:56:23.693Z,21.97
2022-12-05T21:58:52.054Z,21.77
2022-12-05T22:01:22.082Z,21.90
2022-12-05T22:03:53.237Z,21.73
2022-12-05T22:06:21.218Z,22.17
2022-12-05T22:08:50.454Z,22.07
2022-12-05T22:11:20.291Z,19.43
2022-12-05T22:13:49.112Z,18.90
2022-12-05T22:16:18.322Z,19.83
2022-12-05T22:18:46.766Z,20.27
2022-12-05T22:21:16.392Z,19.47
2022-12-05T22:23:44.665Z,20.47
2022-12-05T22:26:15.382Z,19.77
2022-12-05T22:28:43.477Z,18.60
2022-12-05T22:31:13.376Z,18.93
2022-12-05T22:33:41.606Z,18.33
2022-12-05T22:36:11.402Z,19.23
2022-12-05T22:38:40.689Z,18.37
2022-12-05T22:41:10.378Z,18.40
2022-12-05T22:43:39.525Z,18.13
2022-12-05T22:46:10.333Z,17.77
2022-12-05T22:48:38.747Z,17.53
2022-12-05T22:51:08.516Z,17.70
2022-12-05T22:53:36.940Z,17.13
2022-12-05T22:56:06.486Z,17.60
2022-12-05T22:58:34.523Z,16.40
2022-12-05T23:01:11.995Z,17.93
2022-12-05T23:03:40.141Z,16.17
2022-12-05T23:06:11.718Z,15.67
2022-12-05T23:08:40.545Z,16.03
2022-12-05T23:11:09.596Z,15.50
2022-12-05T23:13:38.378Z,15.57
2022-12-05T23:16:08.156Z,15.10
2022-12-05T23:18:46.706Z,15.37
2022-12-05T23:21:17.140Z,14.93
2022-12-05T23:23:45.365Z,15.53
2022-12-05T23:26:14.128Z,14.90
2022-12-05T23:28:42.238Z,14.50
2022-12-05T23:31:11.454Z,13.90
2022-12-05T23:33:41.403Z,14.03
2022-12-05T23:36:10.315Z,14.83
2022-12-05T23:38:39.265Z,14.23
2022-12-05T23:41:09.539Z,14.43
2022-12-05T23:43:38.077Z,13.53
2022-12-05T23:46:07.243Z,13.67
2022-12-05T23:48:35.233Z,13.87
2022-12-05T23:51:07.009Z,13.17
2022-12-05T23:53:37.012Z,14.07
2022-12-05T23:56:07.665Z,12.67
2022-12-05T23:58:35.960Z,12.13
